Aérodrome :
LOGIN :

S'inscrire | Disclaimer

   EN    FR    IT 

 










Légende :    VFR   VFR Marginal   IFR   IFR Intensif   IFR Très Intensif
Visi : 
Plafond : 
>= 8 km
>= 3000ft
5 à 8 km
1000 à 3000 ft
1500m à 5 km
500 à 1000 ft
800 à 1500m
200 à 500 ft
< 800m
< 200 ft
Symboles :   Orages  Brouillard  Fortes neiges  Fortes précipitations  Vent > 20 kt
SIGMETs :   Divers  Orages  Givrage  Turbulence  Onde Orograph.  Cendres Volcan.






- Altitude de l'aérodrome : 135 ft
- Code IATA : EDI


EGPH - Edinburgh

DERNIER METAR :
  • 040520Z 35009G19KT 280V030 2500 +RASN OVC006 01/01 Q0976

METARs EXPIRÉS :
  • 040450Z 33010KT 300V360 3900 +RASN OVC006 01/01 Q0976
  • 040420Z 31007KT 260V350 4800 +RASN OVC005 01/01 Q0977
  • 040350Z 31009KT 270V020 3400 -SN OVC005 01/00 Q0977
  • 040320Z 34009KT 300V360 1900 -SN BKN005 01/00 Q0979
  • 040250Z 34007KT 290V360 3000 -SN BKN006 01/M00 Q0979

TAF TAF EGPH
Valide du 04 à 06h jusqu'au 05 à 06h UTC


040457Z 0406/0506 35009KT 9999 SCT014 BKN030
TEMPO 0406/0506 6000 RA SHRA BKN012
PROB40
TEMPO 0406/0407 36016G28KT 2000 -SN RASN BKN003
BECMG 0412/0415 02016G28KT
PROB40
TEMPO 0412/0420 4000 +RA BKN008
PROB30
TEMPO 0415/0418 03022G38KT
PROB40
TEMPO 0420/0506 4000 +SHRA
BECMG 0500/0503 04009KT
ATIS : +44 131 339 2823



MET'MAP, la Météo Aéronautique d'un coup d'oeil ! - Copyright ORBIFLY Décembre 2007 - Disclaimer

ORBIFLY MET'MAP TEAM :

Programmation & Développement : Alexandra Zaïnal
Sur une idée originale de : Baudouin d'Aumeries
Assistance à la programmation : Marc-Olivier Méhu
Soutien technique & logistique : Manuel Goepfert

Contact : metmap@orbifly.com




SOURCES & CREDITS :

   NOAA